Ocean Spirit of Moray — MVXF5 — position and weather

sailwx.info

Track history (hours):
 
Tides and Currents Weather Stations Pressure Air Temp Water Temp Dewpoint Dewpoint Depression Visibility Wind Speed Wind Dir Waves Ship Positions

Ocean Spirit of Moray (United Kingdom)

Ship's website: http://www.gordonstoun.org.uk/

Last reported at 2020-Sep-23 01:59 UTC. Time now 2020-Sep-23 03:00 UTC.
Position N 57°21' W 005°38'.

Length 24 m; draft 2.8 m.

Type: Sailing vessel. MMSI: 232007590.

Date/timePositionNaut miles runAvg speedWind from/ knotsBaromVisibWave heightAir tempDewpointWater temp
2020-Sep-23 01:59N 57°21' W 005°38'0 0.0
2020-Sep-22 22:59N 57°21' W 005°38'0 0.0
2020-Sep-22 16:29N 57°21' W 005°38'0 0.0
2020-Sep-22 15:59N 57°21' W 005°38'0 0.0
2020-Sep-22 15:29N 57°21' W 005°38'2 0.4
2020-Sep-22 12:00N 57°21' W 005°41'2 1.5
2020-Sep-22 10:58N 57°21' W 005°38'0 0.0
2020-Sep-22 09:58N 57°21' W 005°38'0 0.0
2020-Sep-22 09:28N 57°21' W 005°38'0 0.0
2020-Sep-22 07:55N 57°21' W 005°38'0 0.0
2020-Sep-22 07:28N 57°21' W 005°38'0 0.0
2020-Sep-22 06:58N 57°21' W 005°38'0 0.0
2020-Sep-22 04:58N 57°21' W 005°38'0 0.0
2020-Sep-22 03:58N 57°21' W 005°38'0 0.0
2020-Sep-22 03:28N 57°21' W 005°38'0 0.0
2020-Sep-21 22:58N 57°21' W 005°38'0 0.0
2020-Sep-21 21:58N 57°21' W 005°38'0 0.0
2020-Sep-21 21:28N 57°21' W 005°38'0 0.0
2020-Sep-21 20:28N 57°21' W 005°38'0 0.0
2020-Sep-21 17:28N 57°21' W 005°38'0 0.0
2020-Sep-21 15:58N 57°21' W 005°38'0 0.0
2020-Sep-21 13:58N 57°21' W 005°38'0 0.0
2020-Sep-21 10:28N 57°21' W 005°38'0 0.0
2020-Sep-21 08:28N 57°21' W 005°38'0 0.0
2020-Sep-21 07:28N 57°21' W 005°38'0 0.0
2020-Sep-21 05:30N 57°21' W 005°38'0 0.0
2020-Sep-21 01:30N 57°21' W 005°38'0 0.0
2020-Sep-21 00:27N 57°21' W 005°38'0 0.0
2020-Sep-20 23:30N 57°21' W 005°38'0 0.0
2020-Sep-20 19:30N 57°21' W 005°38'0 0.0
2020-Sep-20 19:00N 57°21' W 005°38'0 0.0
2020-Sep-20 18:00N 57°21' W 005°38'0 0.0
2020-Sep-20 17:30N 57°21' W 005°38'0 0.0
2020-Sep-20 16:59N 57°21' W 005°38'1 1.5
2020-Sep-20 16:30N 57°21' W 005°39'3 6.9
2020-Sep-20 16:00N 57°19' W 005°45'9 5.8
2020-Sep-20 14:27N 57°10' W 005°44'2 0.8
2020-Sep-20 11:45N 57°09' W 005°47'17 5.0
2020-Sep-20 08:16N 57°01' W 006°15'4 0.3
2020-Sep-19 17:29N 57°05' W 006°14'34 2.7
2020-Sep-19 05:00N 57°30' W 006°57'33 4.9
2020-Sep-18 22:16N 57°39' W 005°58'4 0.5
2020-Sep-18 14:59N 57°37' W 005°53'3 1.6
2020-Sep-18 13:20N 57°34' W 005°55'15 5.3
2020-Sep-18 10:30N 57°20' W 005°46'4 1.4
2020-Sep-18 07:29N 57°21' W 005°38'0 0.0
2020-Sep-18 06:59N 57°21' W 005°38'0 0.0
2020-Sep-18 04:59N 57°21' W 005°38'0 0.0
2020-Sep-18 02:59N 57°21' W 005°38'0 0.0
2020-Sep-18 01:29N 57°21' W 005°38'0 0.1
2020-Sep-18 00:59N 57°21' W 005°38'0 0.0
2020-Sep-17 19:28N 57°21' W 005°38'0 0.0
2020-Sep-17 16:58N 57°21' W 005°38'0 0.0
2020-Sep-17 15:30N 57°21' W 005°38'0 0.0
2020-Sep-17 14:30N 57°21' W 005°38'0 0.0
2020-Sep-17 12:00N 57°21' W 005°38'0 0.0
2020-Sep-17 08:00N 57°21' W 005°38'0 0.0
2020-Sep-17 07:30N 57°21' W 005°38'0 0.0
2020-Sep-17 07:00N 57°21' W 005°38'0 0.0
2020-Sep-17 06:30N 57°21' W 005°38'0 0.0
2020-Sep-17 03:30N 57°21' W 005°38'0 0.0
2020-Sep-17 03:00N 57°21' W 005°38'0 0.0
2020-Sep-17 01:30N 57°21' W 005°38'0 0.0
2020-Sep-17 01:00N 57°21' W 005°38'0 0.0
2020-Sep-17 00:30N 57°21' W 005°38'0 0.0
2020-Sep-17 00:00N 57°21' W 005°38'0 0.0
2020-Sep-16 20:30N 57°21' W 005°38'0 0.0
2020-Sep-16 18:30N 57°21' W 005°38'0 0.0
2020-Sep-16 18:00N 57°21' W 005°38'0 0.0
2020-Sep-16 17:00N 57°21' W 005°38'0 0.0
2020-Sep-16 16:30N 57°21' W 005°38'8 1.7
2020-Sep-16 11:54N 57°20' W 005°53'17 0.8
2020-Sep-15 13:51N 57°35' W 006°06'8 0.3
2020-Sep-14 14:29N 57°29' W 005°58'8 4.0
2020-Sep-14 12:22N 57°21' W 005°54'6 2.3
2020-Sep-14 10:00N 57°20' W 005°44'3 0.8
2020-Sep-14 06:28N 57°21' W 005°38'0 0.0
2020-Sep-14 05:28N 57°21' W 005°38'0 0.0
2020-Sep-14 04:58N 57°21' W 005°38'0 0.0
2020-Sep-14 03:58N 57°21' W 005°38'0 0.0
2020-Sep-14 03:28N 57°21' W 005°38'0 0.0
2020-Sep-14 02:58N 57°21' W 005°38'0 0.0
2020-Sep-14 02:28N 57°21' W 005°38'0 0.0
2020-Sep-14 00:58N 57°21' W 005°38'0 0.0
2020-Sep-13 22:28N 57°21' W 005°38'0 0.0
2020-Sep-13 21:58N 57°21' W 005°38'0 0.0
2020-Sep-13 21:28N 57°21' W 005°38'0 0.0
2020-Sep-13 16:00N 57°21' W 005°38'0 0.0
2020-Sep-13 15:30N 57°21' W 005°38'0 0.0
2020-Sep-13 14:28N 57°21' W 005°38'0 0.0
2020-Sep-13 13:30N 57°21' W 005°38'0 0.0
2020-Sep-13 09:00N 57°21' W 005°38'0 0.0
2020-Sep-13 08:30N 57°21' W 005°38'0 0.0
2020-Sep-13 05:00N 57°21' W 005°38'0 0.0
2020-Sep-13 04:30N 57°21' W 005°38'0 0.0
2020-Sep-13 04:01N 57°21' W 005°38'0 0.0
2020-Sep-13 02:00N 57°21' W 005°38'  
Track history (hours):
 
Tides and Currents Weather Stations Pressure Air Temp Water Temp Dewpoint Dewpoint Depression Visibility Wind Speed Wind Dir Waves Ship Positions

Ocean Spirit of Moray (United Kingdom)

Ship's website: http://www.gordonstoun.org.uk/

Last reported at 2020-Sep-23 01:59 UTC. Time now 2020-Sep-23 03:00 UTC.
Position N 57°21' W 005°38'.

Length 24 m; draft 2.8 m.

Type: Sailing vessel. MMSI: 232007590.

Date/timePositionNaut miles runAvg speedWind from/ knotsBaromVisibWave heightAir tempDewpointWater temp
2020-Sep-23 01:59N 57°21' W 005°38'0 0.0
2020-Sep-22 22:59N 57°21' W 005°38'0 0.0
2020-Sep-22 16:29N 57°21' W 005°38'0 0.0
2020-Sep-22 15:59N 57°21' W 005°38'0 0.0
2020-Sep-22 15:29N 57°21' W 005°38'2 0.4
2020-Sep-22 12:00N 57°21' W 005°41'2 1.5
2020-Sep-22 10:58N 57°21' W 005°38'0 0.0
2020-Sep-22 09:58N 57°21' W 005°38'0 0.0
2020-Sep-22 09:28N 57°21' W 005°38'0 0.0
2020-Sep-22 07:55N 57°21' W 005°38'0 0.0
2020-Sep-22 07:28N 57°21' W 005°38'0 0.0
2020-Sep-22 06:58N 57°21' W 005°38'0 0.0
2020-Sep-22 04:58N 57°21' W 005°38'0 0.0
2020-Sep-22 03:58N 57°21' W 005°38'0 0.0
2020-Sep-22 03:28N 57°21' W 005°38'0 0.0
2020-Sep-21 22:58N 57°21' W 005°38'0 0.0
2020-Sep-21 21:58N 57°21' W 005°38'0 0.0
2020-Sep-21 21:28N 57°21' W 005°38'0 0.0
2020-Sep-21 20:28N 57°21' W 005°38'0 0.0
2020-Sep-21 17:28N 57°21' W 005°38'0 0.0
2020-Sep-21 15:58N 57°21' W 005°38'0 0.0
2020-Sep-21 13:58N 57°21' W 005°38'0 0.0
2020-Sep-21 10:28N 57°21' W 005°38'0 0.0
2020-Sep-21 08:28N 57°21' W 005°38'0 0.0
2020-Sep-21 07:28N 57°21' W 005°38'0 0.0
2020-Sep-21 05:30N 57°21' W 005°38'0 0.0
2020-Sep-21 01:30N 57°21' W 005°38'0 0.0
2020-Sep-21 00:27N 57°21' W 005°38'0 0.0
2020-Sep-20 23:30N 57°21' W 005°38'0 0.0
2020-Sep-20 19:30N 57°21' W 005°38'0 0.0
2020-Sep-20 19:00N 57°21' W 005°38'0 0.0
2020-Sep-20 18:00N 57°21' W 005°38'0 0.0
2020-Sep-20 17:30N 57°21' W 005°38'0 0.0
2020-Sep-20 16:59N 57°21' W 005°38'1 1.5
2020-Sep-20 16:30N 57°21' W 005°39'3 6.9
2020-Sep-20 16:00N 57°19' W 005°45'9 5.8
2020-Sep-20 14:27N 57°10' W 005°44'2 0.8
2020-Sep-20 11:45N 57°09' W 005°47'17 5.0
2020-Sep-20 08:16N 57°01' W 006°15'4 0.3
2020-Sep-19 17:29N 57°05' W 006°14'34 2.7
2020-Sep-19 05:00N 57°30' W 006°57'33 4.9
2020-Sep-18 22:16N 57°39' W 005°58'4 0.5
2020-Sep-18 14:59N 57°37' W 005°53'3 1.6
2020-Sep-18 13:20N 57°34' W 005°55'15 5.3
2020-Sep-18 10:30N 57°20' W 005°46'4 1.4
2020-Sep-18 07:29N 57°21' W 005°38'0 0.0
2020-Sep-18 06:59N 57°21' W 005°38'0 0.0
2020-Sep-18 04:59N 57°21' W 005°38'0 0.0
2020-Sep-18 02:59N 57°21' W 005°38'0 0.0
2020-Sep-18 01:29N 57°21' W 005°38'0 0.1
2020-Sep-18 00:59N 57°21' W 005°38'0 0.0
2020-Sep-17 19:28N 57°21' W 005°38'0 0.0
2020-Sep-17 16:58N 57°21' W 005°38'0 0.0
2020-Sep-17 15:30N 57°21' W 005°38'0 0.0
2020-Sep-17 14:30N 57°21' W 005°38'0 0.0
2020-Sep-17 12:00N 57°21' W 005°38'0 0.0
2020-Sep-17 08:00N 57°21' W 005°38'0 0.0
2020-Sep-17 07:30N 57°21' W 005°38'0 0.0
2020-Sep-17 07:00N 57°21' W 005°38'0 0.0
2020-Sep-17 06:30N 57°21' W 005°38'0 0.0
2020-Sep-17 03:30N 57°21' W 005°38'0 0.0
2020-Sep-17 03:00N 57°21' W 005°38'0 0.0
2020-Sep-17 01:30N 57°21' W 005°38'0 0.0
2020-Sep-17 01:00N 57°21' W 005°38'0 0.0
2020-Sep-17 00:30N 57°21' W 005°38'0 0.0
2020-Sep-17 00:00N 57°21' W 005°38'0 0.0
2020-Sep-16 20:30N 57°21' W 005°38'0 0.0
2020-Sep-16 18:30N 57°21' W 005°38'0 0.0
2020-Sep-16 18:00N 57°21' W 005°38'0 0.0
2020-Sep-16 17:00N 57°21' W 005°38'0 0.0
2020-Sep-16 16:30N 57°21' W 005°38'8 1.7
2020-Sep-16 11:54N 57°20' W 005°53'17 0.8
2020-Sep-15 13:51N 57°35' W 006°06'8 0.3
2020-Sep-14 14:29N 57°29' W 005°58'8 4.0
2020-Sep-14 12:22N 57°21' W 005°54'6 2.3
2020-Sep-14 10:00N 57°20' W 005°44'3 0.8
2020-Sep-14 06:28N 57°21' W 005°38'0 0.0
2020-Sep-14 05:28N 57°21' W 005°38'0 0.0
2020-Sep-14 04:58N 57°21' W 005°38'0 0.0
2020-Sep-14 03:58N 57°21' W 005°38'0 0.0
2020-Sep-14 03:28N 57°21' W 005°38'0 0.0
2020-Sep-14 02:58N 57°21' W 005°38'0 0.0
2020-Sep-14 02:28N 57°21' W 005°38'0 0.0
2020-Sep-14 00:58N 57°21' W 005°38'0 0.0
2020-Sep-13 22:28N 57°21' W 005°38'0 0.0
2020-Sep-13 21:58N 57°21' W 005°38'0 0.0
2020-Sep-13 21:28N 57°21' W 005°38'0 0.0
2020-Sep-13 16:00N 57°21' W 005°38'0 0.0
2020-Sep-13 15:30N 57°21' W 005°38'0 0.0
2020-Sep-13 14:28N 57°21' W 005°38'0 0.0
2020-Sep-13 13:30N 57°21' W 005°38'0 0.0
2020-Sep-13 09:00N 57°21' W 005°38'0 0.0
2020-Sep-13 08:30N 57°21' W 005°38'0 0.0
2020-Sep-13 05:00N 57°21' W 005°38'0 0.0
2020-Sep-13 04:30N 57°21' W 005°38'0 0.0
2020-Sep-13 04:01N 57°21' W 005°38'0 0.0
2020-Sep-13 02:00N 57°21' W 005°38'  

Dump ship's entire track history